Terminal Aerodrome Forecast
Issued by NWS

Home | Current Version | Previous Version | Text Only | Print | Product List | Glossary On
Versions: 1 2 3 4 5 6 7 8 9 10 11 12 13 14 15 16 17
000
FTUS43 KIWX 081736
TAFSBN
TAF
KSBN 081736Z 0818/0918 27015G23KT 2SM -SHSN OVC015
      TEMPO 0822/0902 1/2SM SHSN BLSN OVC010
     FM090200 28013KT 1/2SM SHSN BLSN OVC010
     FM091200 28010KT 3SM -SHSN BKN020=

USA.gov is the U.S. government's official web portal to all federal, state and local government web resources and services.